Rawalpindi, Pakistan
Current Conditions -  °F | °C
As of 2:00 AM on Thursday 27 Nov 2014 (Local Time) from OPRN Reporting Station
Haze Haze  
Wind Chill:   Ceiling: Unl
Heat Index:   Visibility: 1.8mi
Dew Point:   Wind: 0mph
Humidity: 82%   Direction: NA
Pressure: NA   Gusts: NA
Location:  33.6°N, 73.04°E
Report Text: OPRN 262100Z 00000KT 3000 HZ FEW100 09/06 Q1012/29.88
Loading
Personal Weather Stations






























Interactive Weather Map New forecast layout! Learn more

10-Day Weather Forecast

Advertisements
Track Severe Weather on mobile